createdAt,value
2022-08-24T00:01:22.399Z,7.83
2022-08-24T00:03:49.751Z,6.97
2022-08-24T00:06:23.580Z,8.00
2022-08-24T00:08:52.851Z,6.97
2022-08-24T00:11:20.484Z,8.13
2022-08-24T00:13:47.423Z,7.77
2022-08-24T00:16:15.964Z,7.47
2022-08-24T00:18:44.256Z,7.60
2022-08-24T00:21:10.991Z,8.60
2022-08-24T00:23:37.634Z,7.70
2022-08-24T00:26:05.353Z,8.57
2022-08-24T00:28:32.126Z,8.30
2022-08-24T00:30:59.080Z,7.83
2022-08-24T00:33:26.522Z,8.53
2022-08-24T00:35:53.201Z,10.07
2022-08-24T00:38:20.353Z,10.87
2022-08-24T00:40:49.214Z,10.87
2022-08-24T00:43:20.671Z,10.53
2022-08-24T00:46:21.979Z,10.87
2022-08-24T00:48:55.213Z,10.53
2022-08-24T00:51:33.445Z,12.30
2022-08-24T00:54:08.799Z,12.83
2022-08-24T00:56:49.417Z,11.83
2022-08-24T00:59:22.444Z,11.90
2022-08-24T01:01:51.387Z,13.43
2022-08-24T01:04:29.881Z,12.03
2022-08-24T01:06:57.366Z,12.17
2022-08-24T01:09:24.152Z,13.17
2022-08-24T01:11:51.013Z,11.63
2022-08-24T01:14:20.479Z,11.90
2022-08-24T01:17:05.862Z,10.50
2022-08-24T01:19:39.543Z,11.00
2022-08-24T01:22:21.014Z,10.40
2022-08-24T01:24:47.870Z,11.73
2022-08-24T01:27:15.595Z,10.93
2022-08-24T01:29:45.737Z,10.53
2022-08-24T01:32:14.488Z,9.93
2022-08-24T01:34:41.255Z,11.60
2022-08-24T01:37:10.867Z,12.00
2022-08-24T01:39:43.855Z,12.23
2022-08-24T01:42:11.541Z,11.87
2022-08-24T01:44:40.203Z,11.93
2022-08-24T01:47:08.717Z,11.90
2022-08-24T01:49:40.079Z,11.90
2022-08-24T01:52:08.202Z,12.27
2022-08-24T01:54:35.376Z,11.40
2022-08-24T01:57:02.280Z,11.53
2022-08-24T01:59:29.654Z,11.10
2022-08-24T02:02:19.887Z,11.13
2022-08-24T02:04:46.581Z,10.50
2022-08-24T02:07:14.080Z,10.17
2022-08-24T02:09:40.882Z,10.60
2022-08-24T02:12:08.200Z,9.27
2022-08-24T02:14:36.572Z,11.30
2022-08-24T02:17:05.829Z,10.67
2022-08-24T02:19:32.678Z,9.67
2022-08-24T02:22:00.529Z,11.10
2022-08-24T02:24:30.660Z,9.97
2022-08-24T02:26:58.235Z,11.60
2022-08-24T02:29:25.396Z,10.63
2022-08-24T02:31:52.296Z,10.53
2022-08-24T02:34:19.065Z,10.60
2022-08-24T02:36:45.953Z,11.70
2022-08-24T02:39:13.091Z,10.97
2022-08-24T02:41:39.882Z,10.90
2022-08-24T02:44:07.187Z,12.50
2022-08-24T02:46:33.917Z,12.93
2022-08-24T02:49:10.564Z,12.30
2022-08-24T02:51:44.078Z,11.07
2022-08-24T02:54:13.569Z,12.70
2022-08-24T02:56:40.277Z,11.53
2022-08-24T02:59:06.974Z,12.07
2022-08-24T03:01:33.860Z,13.00
2022-08-24T03:04:00.564Z,13.07
2022-08-24T03:06:27.248Z,13.03
2022-08-24T03:08:56.421Z,12.47
2022-08-24T03:11:28.008Z,12.83
2022-08-24T03:13:56.458Z,13.03
2022-08-24T03:16:23.155Z,12.43
2022-08-24T03:18:49.903Z,12.00
2022-08-24T03:21:18.743Z,12.47
2022-08-24T03:23:45.383Z,12.50
2022-08-24T03:26:13.067Z,11.10
2022-08-24T03:28:40.140Z,11.23
2022-08-24T03:31:07.479Z,12.73
2022-08-24T03:33:34.299Z,12.83
2022-08-24T03:36:00.985Z,11.73
2022-08-24T03:38:28.370Z,13.17
2022-08-24T03:40:55.041Z,12.47
2022-08-24T03:43:40.261Z,12.13
2022-08-24T03:46:09.152Z,12.10
2022-08-24T03:48:36.765Z,12.60
2022-08-24T03:51:03.755Z,11.70
2022-08-24T03:53:30.455Z,10.37
2022-08-24T03:55:57.078Z,11.80
2022-08-24T03:58:23.971Z,10.50
2022-08-24T04:00:50.895Z,9.90
2022-08-24T04:03:17.682Z,9.53
2022-08-24T04:05:44.422Z,9.17
2022-08-24T04:08:11.490Z,7.60
2022-08-24T04:10:43.575Z,6.77
2022-08-24T04:13:10.242Z,6.27
2022-08-24T04:15:40.911Z,6.07
2022-08-24T04:18:08.479Z,5.67
2022-08-24T04:20:41.152Z,6.40
2022-08-24T04:23:09.306Z,6.10
2022-08-24T04:25:41.742Z,5.40
2022-08-24T04:28:08.541Z,5.63
2022-08-24T04:30:35.185Z,5.00
2022-08-24T04:33:02.332Z,6.07
2022-08-24T04:35:29.119Z,5.33
2022-08-24T04:37:55.791Z,4.57
2022-08-24T04:40:22.632Z,5.33
2022-08-24T04:42:50.651Z,5.07
2022-08-24T04:45:17.322Z,4.70
2022-08-24T04:47:45.585Z,4.90
2022-08-24T04:50:12.947Z,4.93
2022-08-24T04:52:39.703Z,4.43
2022-08-24T04:55:07.633Z,4.17
2022-08-24T04:57:35.068Z,4.40
2022-08-24T05:00:03.279Z,4.20
2022-08-24T05:02:30.015Z,5.03
2022-08-24T05:04:57.932Z,4.37
2022-08-24T05:07:25.876Z,5.30
2022-08-24T05:09:52.845Z,4.83
2022-08-24T05:12:20.911Z,4.77
2022-08-24T05:14:47.609Z,4.13
2022-08-24T05:17:14.299Z,4.10
2022-08-24T05:19:41.038Z,3.40
2022-08-24T05:22:08.119Z,5.10
2022-08-24T05:24:34.872Z,4.50
2022-08-24T05:27:01.559Z,4.40
2022-08-24T05:29:28.303Z,4.30
2022-08-24T05:31:55.038Z,4.03
2022-08-24T05:34:23.863Z,4.50
2022-08-24T05:36:50.529Z,4.53
2022-08-24T05:39:17.207Z,4.77
2022-08-24T05:41:45.341Z,4.23
2022-08-24T05:44:14.182Z,4.17
2022-08-24T05:46:41.250Z,3.90
2022-08-24T05:49:08.306Z,4.17
2022-08-24T05:51:35.698Z,4.40
2022-08-24T05:54:05.037Z,4.50
2022-08-24T05:56:32.255Z,4.97
2022-08-24T05:58:59.352Z,4.17
2022-08-24T06:01:27.266Z,5.20
2022-08-24T06:03:56.462Z,4.80
2022-08-24T06:06:24.320Z,4.17
2022-08-24T06:08:53.529Z,4.20
2022-08-24T06:11:24.751Z,4.30
2022-08-24T06:14:07.368Z,4.57
2022-08-24T06:16:41.318Z,5.07
2022-08-24T06:19:09.921Z,4.77
2022-08-24T06:21:37.988Z,4.50
2022-08-24T06:24:06.569Z,6.60
2022-08-24T06:26:52.561Z,5.17
2022-08-24T06:29:20.320Z,4.67
2022-08-24T06:31:54.218Z,4.70
2022-08-24T06:34:23.313Z,4.37
2022-08-24T06:36:50.463Z,4.60
2022-08-24T06:39:17.261Z,4.50
2022-08-24T06:41:44.133Z,4.33
2022-08-24T06:44:11.121Z,5.50
2022-08-24T06:46:37.943Z,4.47
2022-08-24T06:49:05.532Z,4.77
2022-08-24T06:51:32.627Z,4.40
2022-08-24T06:53:59.529Z,3.90
2022-08-24T06:56:26.503Z,4.53
2022-08-24T06:58:53.264Z,4.10
2022-08-24T07:01:27.559Z,5.20
2022-08-24T07:03:54.880Z,5.30
2022-08-24T07:06:23.596Z,4.70
2022-08-24T07:08:51.135Z,4.50
2022-08-24T07:11:19.095Z,5.10
2022-08-24T07:13:47.526Z,4.43
2022-08-24T07:16:22.172Z,4.63
2022-08-24T07:18:50.229Z,4.83
2022-08-24T07:21:19.737Z,5.20
2022-08-24T07:23:48.319Z,4.30
2022-08-24T07:26:21.472Z,5.10
2022-08-24T07:29:01.403Z,4.27
2022-08-24T07:31:32.025Z,5.23
2022-08-24T07:34:01.450Z,5.30
2022-08-24T07:36:28.545Z,4.93
2022-08-24T07:38:56.218Z,4.43
2022-08-24T07:44:13.044Z,4.00
2022-08-24T07:46:41.772Z,3.70
2022-08-24T07:49:31.600Z,4.23
2022-08-24T07:51:56.109Z,4.67
2022-08-24T07:54:22.917Z,4.30
2022-08-24T07:56:50.338Z,4.20
2022-08-24T07:59:18.181Z,4.00
2022-08-24T08:01:45.067Z,5.10
2022-08-24T08:04:12.148Z,3.63
2022-08-24T08:06:38.879Z,4.50
2022-08-24T08:09:06.434Z,4.20
2022-08-24T08:11:33.210Z,4.30
2022-08-24T08:14:00.079Z,4.27
2022-08-24T08:16:27.866Z,3.77
2022-08-24T08:19:11.068Z,4.60
2022-08-24T08:22:16.950Z,3.93
2022-08-24T08:24:43.951Z,4.60
2022-08-24T08:27:12.550Z,4.57
2022-08-24T08:29:40.682Z,4.40
2022-08-24T08:32:09.546Z,4.50
2022-08-24T08:34:36.818Z,4.33
2022-08-24T08:37:03.961Z,4.30
2022-08-24T08:39:31.394Z,4.33
2022-08-24T08:42:35.454Z,4.47
2022-08-24T08:45:28.454Z,4.47
2022-08-24T08:48:22.947Z,3.90
2022-08-24T08:50:55.959Z,4.33
2022-08-24T08:54:10.725Z,4.53
2022-08-24T08:57:09.976Z,4.07
2022-08-24T09:00:09.086Z,3.83
2022-08-24T09:03:17.433Z,3.67
2022-08-24T09:05:57.548Z,4.57
2022-08-24T09:08:52.105Z,3.60
2022-08-24T09:11:21.826Z,3.97
2022-08-24T09:13:58.909Z,3.67
2022-08-24T09:16:51.158Z,4.40
2022-08-24T09:19:40.016Z,3.93
2022-08-24T09:22:16.960Z,4.00
2022-08-24T09:24:52.856Z,3.93
2022-08-24T09:27:53.340Z,4.37
2022-08-24T09:30:26.008Z,3.70
2022-08-24T09:33:27.175Z,3.17
2022-08-24T09:36:00.122Z,3.60
2022-08-24T09:38:41.695Z,3.47
2022-08-24T09:41:14.147Z,4.20
2022-08-24T09:44:03.512Z,3.40
2022-08-24T09:46:33.231Z,5.37
2022-08-24T09:49:13.629Z,4.60
2022-08-24T09:51:56.569Z,4.00
2022-08-24T09:54:48.186Z,4.20
2022-08-24T09:57:20.017Z,3.53
2022-08-24T10:00:24.267Z,3.50
2022-08-24T10:03:11.938Z,3.63
2022-08-24T10:06:00.022Z,3.63
2022-08-24T10:08:53.447Z,3.33
2022-08-24T10:11:47.764Z,3.50
2022-08-24T10:14:42.407Z,3.73
2022-08-24T10:17:30.827Z,3.33
2022-08-24T10:20:19.246Z,3.53
2022-08-24T10:23:22.621Z,3.40
2022-08-24T10:25:59.994Z,3.43
2022-08-24T10:28:57.422Z,3.90
2022-08-24T10:31:26.720Z,3.03
2022-08-24T10:34:30.282Z,3.57
2022-08-24T10:37:25.545Z,3.97
2022-08-24T10:40:06.388Z,3.60
2022-08-24T10:43:00.585Z,4.07
2022-08-24T10:45:27.218Z,3.90
2022-08-24T10:48:15.438Z,3.60
2022-08-24T10:50:50.862Z,3.63
2022-08-24T10:53:32.977Z,3.87
2022-08-24T10:56:14.871Z,3.67
2022-08-24T10:58:47.443Z,3.90
2022-08-24T11:01:23.354Z,4.10
2022-08-24T11:03:50.404Z,3.77
2022-08-24T11:06:19.352Z,3.50
2022-08-24T11:09:17.236Z,3.73
2022-08-24T11:11:48.846Z,3.53
2022-08-24T11:14:15.475Z,3.60
2022-08-24T11:16:45.259Z,3.77
2022-08-24T11:19:31.343Z,4.23
2022-08-24T11:22:02.091Z,3.17
2022-08-24T11:24:46.032Z,4.03
2022-08-24T11:27:15.377Z,3.17
2022-08-24T11:29:54.837Z,3.83
2022-08-24T11:32:39.747Z,3.80
2022-08-24T11:35:33.634Z,3.93
2022-08-24T11:38:07.358Z,4.03
2022-08-24T11:40:43.607Z,3.97
2022-08-24T11:43:22.610Z,4.03
2022-08-24T11:46:11.571Z,3.90
2022-08-24T11:48:53.376Z,4.10
2022-08-24T11:51:21.281Z,3.70
2022-08-24T11:53:47.890Z,4.03
2022-08-24T11:56:33.047Z,3.67
2022-08-24T11:59:26.302Z,3.70
2022-08-24T12:02:04.272Z,3.73
2022-08-24T12:04:49.235Z,3.37
2022-08-24T12:07:28.121Z,3.90
2022-08-24T12:09:54.702Z,4.17
2022-08-24T12:12:40.931Z,3.83
2022-08-24T12:15:17.074Z,4.10
2022-08-24T12:17:49.422Z,4.60
2022-08-24T12:20:32.121Z,3.97
2022-08-24T12:23:08.753Z,4.70
2022-08-24T12:25:54.207Z,4.07
2022-08-24T12:28:29.123Z,3.73
2022-08-24T12:31:02.095Z,4.00
2022-08-24T12:33:37.546Z,4.37
2022-08-24T12:36:13.574Z,4.10
2022-08-24T12:38:48.050Z,3.90
2022-08-24T12:41:27.551Z,3.60
2022-08-24T12:44:02.362Z,3.63
2022-08-24T12:46:30.392Z,4.60
2022-08-24T12:49:12.466Z,4.80
2022-08-24T12:52:05.136Z,5.00
2022-08-24T12:54:53.319Z,4.77
2022-08-24T12:57:39.619Z,5.13
2022-08-24T13:00:24.543Z,4.93
2022-08-24T13:03:04.461Z,5.40
2022-08-24T13:05:50.799Z,4.83
2022-08-24T13:08:32.083Z,4.70
2022-08-24T13:11:27.539Z,4.37
2022-08-24T13:13:54.102Z,4.37
2022-08-24T13:17:06.698Z,5.30
2022-08-24T13:19:38.668Z,4.67
2022-08-24T13:22:10.860Z,5.07
2022-08-24T13:24:42.076Z,4.97
2022-08-24T13:27:11.581Z,5.13
2022-08-24T13:30:13.546Z,5.00
2022-08-24T13:32:45.489Z,4.87
2022-08-24T13:35:55.315Z,4.70
2022-08-24T13:38:24.582Z,4.87
2022-08-24T13:40:56.931Z,4.70
2022-08-24T13:43:26.555Z,4.50
2022-08-24T13:46:00.108Z,5.57
2022-08-24T13:48:49.429Z,5.37
2022-08-24T13:51:24.983Z,4.63
2022-08-24T13:54:20.389Z,4.67
2022-08-24T13:57:07.124Z,4.83
2022-08-24T13:59:52.173Z,4.83
2022-08-24T14:02:39.269Z,4.73
2022-08-24T14:05:44.036Z,4.77
2022-08-24T14:08:28.537Z,4.67
2022-08-24T14:11:08.977Z,4.70
2022-08-24T14:14:05.341Z,5.47
2022-08-24T14:17:02.630Z,4.60
2022-08-24T14:19:43.155Z,4.73
2022-08-24T14:22:09.770Z,4.67
2022-08-24T14:24:48.581Z,5.13
2022-08-24T14:27:35.005Z,5.07
2022-08-24T14:30:23.518Z,5.10
2022-08-24T14:33:03.465Z,5.00
2022-08-24T14:35:53.706Z,4.87
2022-08-24T14:38:20.313Z,5.10
2022-08-24T14:40:53.015Z,5.10
2022-08-24T14:43:30.843Z,4.60
2022-08-24T14:46:19.278Z,5.00
2022-08-24T14:48:48.781Z,4.73
2022-08-24T14:51:44.195Z,5.20
2022-08-24T14:54:47.840Z,5.03
2022-08-24T14:57:37.888Z,5.17
2022-08-24T15:00:15.924Z,5.10
2022-08-24T15:02:51.644Z,4.57
2022-08-24T15:05:36.175Z,4.87
2022-08-24T15:08:13.273Z,4.53
2022-08-24T15:11:05.676Z,5.20
2022-08-24T15:13:42.095Z,4.93
2022-08-24T15:16:27.303Z,4.97
2022-08-24T15:19:03.045Z,4.70
2022-08-24T15:21:47.764Z,4.53
2022-08-24T15:24:29.238Z,4.70
2022-08-24T15:27:33.605Z,4.70
2022-08-24T15:30:04.651Z,4.83
2022-08-24T15:32:44.554Z,5.27
2022-08-24T15:35:30.453Z,5.23
2022-08-24T15:37:58.094Z,5.23
2022-08-24T15:40:31.707Z,4.97
2022-08-24T15:43:04.082Z,5.57
2022-08-24T15:45:32.950Z,5.53
2022-08-24T15:48:02.378Z,5.70
2022-08-24T15:50:41.637Z,6.70
2022-08-24T15:53:14.167Z,5.50
2022-08-24T15:55:43.723Z,5.53
2022-08-24T15:58:37.646Z,5.03
2022-08-24T16:01:28.736Z,6.00
2022-08-24T16:04:01.956Z,5.20
2022-08-24T16:06:31.853Z,5.10
2022-08-24T16:09:18.711Z,6.10
2022-08-24T16:11:48.172Z,5.33
2022-08-24T16:14:25.924Z,6.00
2022-08-24T16:16:54.472Z,7.53
2022-08-24T16:19:25.911Z,6.57
2022-08-24T16:22:01.135Z,6.20
2022-08-24T16:24:33.148Z,5.10
2022-08-24T16:27:14.727Z,5.23
2022-08-24T16:29:45.197Z,5.27
2022-08-24T16:32:33.649Z,5.67
2022-08-24T16:35:11.699Z,5.87
2022-08-24T16:37:39.367Z,4.97
2022-08-24T16:40:08.522Z,5.33
2022-08-24T16:42:36.544Z,5.07
2022-08-24T16:45:06.110Z,5.87
2022-08-24T16:47:32.793Z,5.90
2022-08-24T16:49:59.408Z,5.60
2022-08-24T16:52:26.061Z,5.97
2022-08-24T16:54:52.682Z,6.50
2022-08-24T16:57:22.965Z,5.03
2022-08-24T16:59:52.152Z,6.73
2022-08-24T17:02:20.232Z,5.97
2022-08-24T17:04:46.967Z,6.13
2022-08-24T17:07:21.531Z,5.73
2022-08-24T17:09:48.865Z,5.67
2022-08-24T17:12:15.643Z,5.37
2022-08-24T17:14:42.831Z,6.23
2022-08-24T17:17:13.645Z,5.97
2022-08-24T17:19:41.075Z,5.33
2022-08-24T17:22:14.294Z,5.60
2022-08-24T17:24:43.083Z,5.40
2022-08-24T17:27:09.767Z,6.20
2022-08-24T17:29:36.627Z,6.63
2022-08-24T17:32:03.918Z,6.13
2022-08-24T17:34:32.190Z,5.90
2022-08-24T17:37:00.112Z,6.00
2022-08-24T17:39:27.472Z,6.23
2022-08-24T17:41:56.368Z,6.47
2022-08-24T17:44:26.723Z,6.40
2022-08-24T17:46:57.686Z,5.53
2022-08-24T17:49:25.095Z,6.80
2022-08-24T17:51:52.146Z,6.17
2022-08-24T17:54:19.391Z,6.63
2022-08-24T17:56:48.746Z,6.20
2022-08-24T17:59:23.575Z,6.40
2022-08-24T18:01:52.679Z,6.83
2022-08-24T18:04:21.858Z,6.47
2022-08-24T18:06:49.596Z,6.33
2022-08-24T18:09:21.527Z,5.97
2022-08-24T18:11:48.158Z,6.80
2022-08-24T18:14:15.089Z,6.87
2022-08-24T18:16:41.835Z,6.80
2022-08-24T18:19:11.865Z,5.97
2022-08-24T18:21:38.693Z,6.53
2022-08-24T18:24:05.771Z,5.83
2022-08-24T18:26:33.769Z,6.50
2022-08-24T18:29:09.042Z,6.30
2022-08-24T18:31:36.012Z,5.60
2022-08-24T18:34:02.707Z,7.47
2022-08-24T18:36:29.420Z,8.27
2022-08-24T18:38:56.044Z,7.57
2022-08-24T18:41:35.396Z,7.23
2022-08-24T18:44:03.704Z,7.97
2022-08-24T18:46:31.289Z,10.10
2022-08-24T18:48:59.041Z,12.57
2022-08-24T18:51:28.137Z,9.20
2022-08-24T18:54:05.372Z,8.53
2022-08-24T18:56:32.133Z,8.50
2022-08-24T18:58:58.875Z,7.13
2022-08-24T19:01:27.335Z,7.90
2022-08-24T19:03:55.565Z,8.53
2022-08-24T19:06:24.374Z,8.80
2022-08-24T19:08:51.249Z,7.97
2022-08-24T19:11:23.348Z,7.30
2022-08-24T19:13:50.000Z,7.23
2022-08-24T19:16:17.036Z,7.33
2022-08-24T19:18:45.922Z,6.50
2022-08-24T19:21:12.632Z,6.90
2022-08-24T19:23:40.638Z,7.07
2022-08-24T19:26:07.392Z,7.83
2022-08-24T19:28:34.138Z,6.33
2022-08-24T19:31:03.740Z,6.97
2022-08-24T19:33:41.252Z,8.20
2022-08-24T19:36:08.072Z,7.00
2022-08-24T19:38:34.776Z,6.90
2022-08-24T19:41:03.580Z,7.63
2022-08-24T19:43:58.543Z,7.53
2022-08-24T19:46:25.297Z,6.77
2022-08-24T19:48:52.064Z,6.77
2022-08-24T19:51:18.854Z,6.83
2022-08-24T19:53:45.752Z,6.97
2022-08-24T19:56:12.441Z,6.47
2022-08-24T19:59:01.296Z,6.97
2022-08-24T20:01:34.459Z,6.30
2022-08-24T20:04:03.333Z,5.83
2022-08-24T20:06:33.349Z,6.37
2022-08-24T20:09:02.843Z,7.00
2022-08-24T20:11:29.705Z,6.43
2022-08-24T20:13:56.728Z,6.80
2022-08-24T20:16:26.633Z,7.17
2022-08-24T20:18:53.475Z,6.63
2022-08-24T20:21:20.368Z,6.57
2022-08-24T20:23:47.024Z,6.97
2022-08-24T20:26:14.161Z,6.00
2022-08-24T20:28:48.121Z,7.17
2022-08-24T20:31:15.731Z,6.30
2022-08-24T20:33:42.469Z,6.27
2022-08-24T20:36:36.414Z,6.00
2022-08-24T20:39:07.071Z,6.33
2022-08-24T20:41:33.822Z,6.93
2022-08-24T20:44:01.607Z,7.03
2022-08-24T20:46:29.119Z,6.80
2022-08-24T20:48:57.285Z,6.77
2022-08-24T20:51:26.767Z,6.07
2022-08-24T20:53:54.174Z,6.17
2022-08-24T20:56:31.477Z,5.80
2022-08-24T20:59:01.258Z,5.60
2022-08-24T21:01:27.998Z,6.23
2022-08-24T21:03:54.716Z,6.17
2022-08-24T21:06:21.452Z,6.13
2022-08-24T21:08:50.786Z,6.30
2022-08-24T21:11:18.210Z,6.80
2022-08-24T21:13:44.877Z,6.17
2022-08-24T21:16:14.901Z,6.30
2022-08-24T21:18:46.868Z,6.10
2022-08-24T21:21:13.971Z,5.93
2022-08-24T21:23:40.740Z,5.93
2022-08-24T21:26:10.728Z,5.93
2022-08-24T21:28:41.033Z,6.60
2022-08-24T21:31:07.776Z,6.30
2022-08-24T21:33:53.554Z,6.33
2022-08-24T21:36:23.458Z,6.43
2022-08-24T21:38:52.023Z,6.17
2022-08-24T21:41:20.561Z,6.83
2022-08-24T21:43:47.259Z,7.27
2022-08-24T21:46:14.336Z,7.23
2022-08-24T21:48:41.209Z,6.53
2022-08-24T21:51:08.058Z,6.67
2022-08-24T21:53:34.883Z,7.43
2022-08-24T21:56:02.484Z,6.63
2022-08-24T21:58:29.604Z,6.37
2022-08-24T22:00:59.041Z,6.43
2022-08-24T22:03:26.433Z,7.07
2022-08-24T22:05:58.479Z,6.23
2022-08-24T22:08:26.074Z,6.67
2022-08-24T22:10:55.482Z,6.60
2022-08-24T22:13:22.263Z,6.87
2022-08-24T22:15:50.230Z,6.77
2022-08-24T22:18:16.963Z,6.70
2022-08-24T22:20:43.623Z,7.77
2022-08-24T22:23:10.331Z,7.00
2022-08-24T22:25:37.009Z,6.27
2022-08-24T22:28:03.941Z,6.77
2022-08-24T22:30:33.114Z,6.30
2022-08-24T22:33:00.280Z,6.57
2022-08-24T22:35:27.362Z,6.80
2022-08-24T22:37:54.034Z,6.60
2022-08-24T22:40:20.818Z,6.37
2022-08-24T22:42:47.524Z,7.63
2022-08-24T22:45:14.140Z,6.27
2022-08-24T22:47:40.795Z,5.73
2022-08-24T22:50:08.460Z,6.07
2022-08-24T22:52:35.111Z,6.53
2022-08-24T22:55:01.814Z,6.20
2022-08-24T22:57:30.389Z,6.20
2022-08-24T22:59:57.696Z,6.33
2022-08-24T23:02:24.532Z,7.27
2022-08-24T23:04:52.774Z,6.13
2022-08-24T23:07:20.438Z,5.90
2022-08-24T23:09:48.415Z,5.60
2022-08-24T23:12:19.300Z,6.87
2022-08-24T23:14:46.039Z,6.27
2022-08-24T23:17:12.800Z,6.43
2022-08-24T23:19:58.160Z,5.80
2022-08-24T23:22:25.582Z,6.47
2022-08-24T23:24:52.913Z,6.13
2022-08-24T23:27:20.150Z,6.47
2022-08-24T23:29:47.773Z,6.43
2022-08-24T23:32:18.102Z,6.17
2022-08-24T23:34:46.391Z,7.07
2022-08-24T23:37:13.536Z,6.90
2022-08-24T23:39:40.203Z,7.90
2022-08-24T23:42:07.153Z,6.37
2022-08-24T23:44:34.031Z,6.00
2022-08-24T23:47:01.204Z,7.10
2022-08-24T23:49:29.510Z,7.10
2022-08-24T23:51:56.365Z,6.63
2022-08-24T23:54:23.740Z,7.77
2022-08-24T23:56:51.518Z,7.23
2022-08-24T23:59:22.346Z,6.00
